sensor_id;sensor_type;location;lat;lon;timestamp;P1;durP1;ratioP1;P2;durP2;ratioP2
11238;SDS011;5677;48.488;13.436;2022-08-21T00:01:03;4.57;;;3.00;;
11238;SDS011;5677;48.488;13.436;2022-08-21T00:03:36;3.03;;;2.53;;
11238;SDS011;5677;48.488;13.436;2022-08-21T00:06:07;5.57;;;3.20;;
11238;SDS011;5677;48.488;13.436;2022-08-21T00:08:36;4.97;;;2.90;;
11238;SDS011;5677;48.488;13.436;2022-08-21T00:11:05;3.57;;;2.67;;
11238;SDS011;5677;48.488;13.436;2022-08-21T00:13:34;4.07;;;2.87;;
11238;SDS011;5677;48.488;13.436;2022-08-21T00:16:03;3.20;;;2.70;;
11238;SDS011;5677;48.488;13.436;2022-08-21T00:18:32;3.27;;;2.80;;
11238;SDS011;5677;48.488;13.436;2022-08-21T00:21:01;3.17;;;2.87;;
11238;SDS011;5677;48.488;13.436;2022-08-21T00:23:32;3.67;;;2.57;;
11238;SDS011;5677;48.488;13.436;2022-08-21T00:26:01;4.80;;;2.60;;
11238;SDS011;5677;48.488;13.436;2022-08-21T00:28:30;5.60;;;3.07;;
11238;SDS011;5677;48.488;13.436;2022-08-21T00:30:59;3.30;;;2.80;;
11238;SDS011;5677;48.488;13.436;2022-08-21T00:33:29;2.90;;;2.60;;
11238;SDS011;5677;48.488;13.436;2022-08-21T00:35:59;3.57;;;2.50;;
11238;SDS011;5677;48.488;13.436;2022-08-21T00:38:28;4.10;;;2.80;;
11238;SDS011;5677;48.488;13.436;2022-08-21T00:40:59;2.93;;;2.67;;
11238;SDS011;5677;48.488;13.436;2022-08-21T00:43:31;3.80;;;2.47;;
11238;SDS011;5677;48.488;13.436;2022-08-21T00:46:03;4.07;;;2.47;;
11238;SDS011;5677;48.488;13.436;2022-08-21T00:48:33;2.70;;;2.50;;
11238;SDS011;5677;48.488;13.436;2022-08-21T00:51:03;2.70;;;2.50;;
11238;SDS011;5677;48.488;13.436;2022-08-21T00:53:39;3.27;;;2.53;;
11238;SDS011;5677;48.488;13.436;2022-08-21T00:56:11;2.60;;;2.40;;
11238;SDS011;5677;48.488;13.436;2022-08-21T00:58:41;4.23;;;2.70;;
11238;SDS011;5677;48.488;13.436;2022-08-21T01:01:10;4.33;;;2.87;;
11238;SDS011;5677;48.488;13.436;2022-08-21T01:03:40;3.23;;;2.60;;
11238;SDS011;5677;48.488;13.436;2022-08-21T01:06:08;2.70;;;2.50;;
11238;SDS011;5677;48.488;13.436;2022-08-21T01:08:39;3.43;;;2.47;;
11238;SDS011;5677;48.488;13.436;2022-08-21T01:11:07;2.97;;;2.30;;
11238;SDS011;5677;48.488;13.436;2022-08-21T01:13:36;2.60;;;2.40;;
11238;SDS011;5677;48.488;13.436;2022-08-21T01:16:12;3.30;;;2.60;;
11238;SDS011;5677;48.488;13.436;2022-08-21T01:18:44;2.80;;;2.47;;
11238;SDS011;5677;48.488;13.436;2022-08-21T01:21:17;2.40;;;2.20;;
11238;SDS011;5677;48.488;13.436;2022-08-21T01:23:49;3.67;;;2.13;;
11238;SDS011;5677;48.488;13.436;2022-08-21T01:26:21;3.10;;;2.50;;
11238;SDS011;5677;48.488;13.436;2022-08-21T01:28:54;3.00;;;2.67;;
11238;SDS011;5677;48.488;13.436;2022-08-21T01:31:28;3.33;;;2.60;;
11238;SDS011;5677;48.488;13.436;2022-08-21T01:33:58;3.30;;;2.63;;
11238;SDS011;5677;48.488;13.436;2022-08-21T01:36:29;2.60;;;2.20;;
11238;SDS011;5677;48.488;13.436;2022-08-21T01:38:59;3.53;;;2.50;;
11238;SDS011;5677;48.488;13.436;2022-08-21T01:41:29;2.70;;;2.50;;
11238;SDS011;5677;48.488;13.436;2022-08-21T01:43:57;2.50;;;2.20;;
11238;SDS011;5677;48.488;13.436;2022-08-21T01:46:25;2.53;;;2.33;;
11238;SDS011;5677;48.488;13.436;2022-08-21T01:48:55;2.70;;;2.50;;
11238;SDS011;5677;48.488;13.436;2022-08-21T01:51:23;3.13;;;2.30;;
11238;SDS011;5677;48.488;13.436;2022-08-21T01:53:53;2.60;;;2.40;;
11238;SDS011;5677;48.488;13.436;2022-08-21T01:56:22;2.60;;;2.40;;
11238;SDS011;5677;48.488;13.436;2022-08-21T01:58:53;2.60;;;2.40;;
11238;SDS011;5677;48.488;13.436;2022-08-21T02:01:21;2.30;;;2.10;;
11238;SDS011;5677;48.488;13.436;2022-08-21T02:03:50;2.80;;;2.17;;
11238;SDS011;5677;48.488;13.436;2022-08-21T02:06:18;2.53;;;2.33;;
11238;SDS011;5677;48.488;13.436;2022-08-21T02:08:46;3.10;;;2.40;;
11238;SDS011;5677;48.488;13.436;2022-08-21T02:11:17;2.20;;;2.00;;
11238;SDS011;5677;48.488;13.436;2022-08-21T02:13:46;2.37;;;2.17;;
11238;SDS011;5677;48.488;13.436;2022-08-21T02:16:15;2.60;;;2.40;;
11238;SDS011;5677;48.488;13.436;2022-08-21T02:18:43;2.53;;;2.20;;
11238;SDS011;5677;48.488;13.436;2022-08-21T02:21:13;3.00;;;2.40;;
11238;SDS011;5677;48.488;13.436;2022-08-21T02:23:41;2.30;;;2.10;;
11238;SDS011;5677;48.488;13.436;2022-08-21T02:26:11;2.60;;;2.40;;
11238;SDS011;5677;48.488;13.436;2022-08-21T02:28:41;2.70;;;2.03;;
11238;SDS011;5677;48.488;13.436;2022-08-21T02:31:10;2.40;;;2.20;;
11238;SDS011;5677;48.488;13.436;2022-08-21T02:33:39;2.40;;;2.20;;
11238;SDS011;5677;48.488;13.436;2022-08-21T02:36:08;3.17;;;2.37;;
11238;SDS011;5677;48.488;13.436;2022-08-21T02:38:39;2.30;;;2.10;;
11238;SDS011;5677;48.488;13.436;2022-08-21T02:41:11;2.50;;;2.30;;
11238;SDS011;5677;48.488;13.436;2022-08-21T02:43:44;2.13;;;2.00;;
11238;SDS011;5677;48.488;13.436;2022-08-21T02:46:14;2.27;;;2.10;;
11238;SDS011;5677;48.488;13.436;2022-08-21T02:48:45;2.63;;;2.33;;
11238;SDS011;5677;48.488;13.436;2022-08-21T02:51:14;1.90;;;1.80;;
11238;SDS011;5677;48.488;13.436;2022-08-21T02:53:47;2.33;;;2.13;;
11238;SDS011;5677;48.488;13.436;2022-08-21T02:56:18;2.50;;;2.30;;
11238;SDS011;5677;48.488;13.436;2022-08-21T02:58:50;2.37;;;2.23;;
11238;SDS011;5677;48.488;13.436;2022-08-21T03:01:19;2.40;;;2.20;;
11238;SDS011;5677;48.488;13.436;2022-08-21T03:03:48;2.27;;;2.17;;
11238;SDS011;5677;48.488;13.436;2022-08-21T03:06:17;2.50;;;2.30;;
11238;SDS011;5677;48.488;13.436;2022-08-21T03:08:50;3.27;;;2.30;;
11238;SDS011;5677;48.488;13.436;2022-08-21T03:11:18;2.50;;;2.13;;
11238;SDS011;5677;48.488;13.436;2022-08-21T03:13:47;2.60;;;2.13;;
11238;SDS011;5677;48.488;13.436;2022-08-21T03:16:17;2.50;;;2.30;;
11238;SDS011;5677;48.488;13.436;2022-08-21T03:18:46;2.10;;;2.00;;
11238;SDS011;5677;48.488;13.436;2022-08-21T03:21:14;2.30;;;2.10;;
11238;SDS011;5677;48.488;13.436;2022-08-21T03:23:44;2.10;;;1.90;;
11238;SDS011;5677;48.488;13.436;2022-08-21T03:26:12;2.23;;;2.10;;
11238;SDS011;5677;48.488;13.436;2022-08-21T03:28:41;3.10;;;1.93;;
11238;SDS011;5677;48.488;13.436;2022-08-21T03:31:11;2.60;;;2.10;;
11238;SDS011;5677;48.488;13.436;2022-08-21T03:33:41;2.33;;;2.13;;
11238;SDS011;5677;48.488;13.436;2022-08-21T03:36:11;1.90;;;1.80;;
11238;SDS011;5677;48.488;13.436;2022-08-21T03:38:40;2.50;;;2.20;;
11238;SDS011;5677;48.488;13.436;2022-08-21T03:41:09;2.27;;;2.07;;
11238;SDS011;5677;48.488;13.436;2022-08-21T03:43:37;2.20;;;2.00;;
11238;SDS011;5677;48.488;13.436;2022-08-21T03:46:06;1.93;;;1.83;;
11238;SDS011;5677;48.488;13.436;2022-08-21T03:48:36;3.97;;;2.30;;
11238;SDS011;5677;48.488;13.436;2022-08-21T03:51:06;2.17;;;1.90;;
11238;SDS011;5677;48.488;13.436;2022-08-21T03:53:37;2.27;;;2.07;;
11238;SDS011;5677;48.488;13.436;2022-08-21T03:56:06;2.17;;;1.97;;
11238;SDS011;5677;48.488;13.436;2022-08-21T03:58:35;2.20;;;2.00;;
11238;SDS011;5677;48.488;13.436;2022-08-21T04:01:05;1.93;;;1.83;;
11238;SDS011;5677;48.488;13.436;2022-08-21T04:03:36;2.73;;;2.30;;
11238;SDS011;5677;48.488;13.436;2022-08-21T04:06:05;2.40;;;2.20;;
11238;SDS011;5677;48.488;13.436;2022-08-21T04:08:35;2.10;;;1.90;;
11238;SDS011;5677;48.488;13.436;2022-08-21T04:11:07;1.93;;;1.83;;
11238;SDS011;5677;48.488;13.436;2022-08-21T04:13:36;1.90;;;1.70;;
11238;SDS011;5677;48.488;13.436;2022-08-21T04:16:06;2.20;;;2.10;;
11238;SDS011;5677;48.488;13.436;2022-08-21T04:18:37;2.07;;;1.97;;
11238;SDS011;5677;48.488;13.436;2022-08-21T04:21:05;2.13;;;1.80;;
11238;SDS011;5677;48.488;13.436;2022-08-21T04:23:38;2.17;;;2.00;;
11238;SDS011;5677;48.488;13.436;2022-08-21T04:26:07;2.10;;;2.00;;
11238;SDS011;5677;48.488;13.436;2022-08-21T04:28:37;2.03;;;1.90;;
11238;SDS011;5677;48.488;13.436;2022-08-21T04:31:05;3.00;;;2.23;;
11238;SDS011;5677;48.488;13.436;2022-08-21T04:33:34;2.00;;;1.90;;
11238;SDS011;5677;48.488;13.436;2022-08-21T04:36:04;2.10;;;1.90;;
11238;SDS011;5677;48.488;13.436;2022-08-21T04:38:34;2.03;;;1.93;;
11238;SDS011;5677;48.488;13.436;2022-08-21T04:41:02;1.97;;;1.87;;
11238;SDS011;5677;48.488;13.436;2022-08-21T04:43:32;1.97;;;1.87;;
11238;SDS011;5677;48.488;13.436;2022-08-21T04:46:01;2.07;;;1.93;;
11238;SDS011;5677;48.488;13.436;2022-08-21T04:48:30;2.13;;;1.93;;
11238;SDS011;5677;48.488;13.436;2022-08-21T04:51:02;2.27;;;2.03;;
11238;SDS011;5677;48.488;13.436;2022-08-21T04:53:36;2.30;;;1.90;;
11238;SDS011;5677;48.488;13.436;2022-08-21T04:56:11;3.97;;;1.70;;
11238;SDS011;5677;48.488;13.436;2022-08-21T04:58:45;3.37;;;1.73;;
11238;SDS011;5677;48.488;13.436;2022-08-21T05:01:17;1.80;;;1.70;;
11238;SDS011;5677;48.488;13.436;2022-08-21T05:03:51;2.40;;;2.10;;
11238;SDS011;5677;48.488;13.436;2022-08-21T05:06:25;2.00;;;1.80;;
11238;SDS011;5677;48.488;13.436;2022-08-21T05:08:57;2.97;;;2.20;;
11238;SDS011;5677;48.488;13.436;2022-08-21T05:11:27;2.43;;;2.00;;
11238;SDS011;5677;48.488;13.436;2022-08-21T05:13:57;3.50;;;1.90;;
11238;SDS011;5677;48.488;13.436;2022-08-21T05:16:26;1.83;;;1.73;;
11238;SDS011;5677;48.488;13.436;2022-08-21T05:18:55;6.60;;;5.77;;
11238;SDS011;5677;48.488;13.436;2022-08-21T05:21:25;6.40;;;5.70;;
11238;SDS011;5677;48.488;13.436;2022-08-21T05:23:54;6.00;;;4.37;;
11238;SDS011;5677;48.488;13.436;2022-08-21T05:26:22;5.50;;;5.00;;
11238;SDS011;5677;48.488;13.436;2022-08-21T05:28:52;5.20;;;4.67;;
11238;SDS011;5677;48.488;13.436;2022-08-21T05:31:20;7.23;;;5.77;;
11238;SDS011;5677;48.488;13.436;2022-08-21T05:33:48;6.50;;;5.30;;
11238;SDS011;5677;48.488;13.436;2022-08-21T05:36:17;9.17;;;6.33;;
11238;SDS011;5677;48.488;13.436;2022-08-21T05:38:47;7.30;;;5.00;;
11238;SDS011;5677;48.488;13.436;2022-08-21T05:41:16;7.60;;;5.70;;
11238;SDS011;5677;48.488;13.436;2022-08-21T05:43:45;6.07;;;5.30;;
11238;SDS011;5677;48.488;13.436;2022-08-21T05:46:14;6.03;;;5.40;;
11238;SDS011;5677;48.488;13.436;2022-08-21T05:48:43;6.00;;;5.50;;
11238;SDS011;5677;48.488;13.436;2022-08-21T05:51:12;6.87;;;6.13;;
11238;SDS011;5677;48.488;13.436;2022-08-21T05:53:43;7.07;;;4.97;;
11238;SDS011;5677;48.488;13.436;2022-08-21T05:56:13;5.67;;;5.07;;
11238;SDS011;5677;48.488;13.436;2022-08-21T05:58:42;8.50;;;5.73;;
11238;SDS011;5677;48.488;13.436;2022-08-21T06:01:11;7.17;;;5.43;;
11238;SDS011;5677;48.488;13.436;2022-08-21T06:03:41;8.83;;;5.67;;
11238;SDS011;5677;48.488;13.436;2022-08-21T06:06:10;5.70;;;5.07;;
11238;SDS011;5677;48.488;13.436;2022-08-21T06:08:39;7.07;;;5.73;;
11238;SDS011;5677;48.488;13.436;2022-08-21T06:11:10;6.67;;;5.93;;
11238;SDS011;5677;48.488;13.436;2022-08-21T06:13:40;7.67;;;6.73;;
11238;SDS011;5677;48.488;13.436;2022-08-21T06:16:10;8.00;;;5.87;;
11238;SDS011;5677;48.488;13.436;2022-08-21T06:18:41;7.50;;;5.80;;
11238;SDS011;5677;48.488;13.436;2022-08-21T06:21:10;10.03;;;6.00;;
11238;SDS011;5677;48.488;13.436;2022-08-21T06:23:39;8.27;;;6.67;;
11238;SDS011;5677;48.488;13.436;2022-08-21T06:26:09;10.90;;;6.00;;
11238;SDS011;5677;48.488;13.436;2022-08-21T06:28:41;7.53;;;6.63;;
11238;SDS011;5677;48.488;13.436;2022-08-21T06:31:11;8.83;;;7.93;;
11238;SDS011;5677;48.488;13.436;2022-08-21T06:33:42;8.37;;;7.57;;
11238;SDS011;5677;48.488;13.436;2022-08-21T06:36:11;8.83;;;7.93;;
11238;SDS011;5677;48.488;13.436;2022-08-21T06:38:40;8.07;;;6.07;;
11238;SDS011;5677;48.488;13.436;2022-08-21T06:41:08;12.33;;;8.07;;
11238;SDS011;5677;48.488;13.436;2022-08-21T06:43:38;8.68;;;7.55;;
11238;SDS011;5677;48.488;13.436;2022-08-21T06:46:07;7.80;;;6.40;;
11238;SDS011;5677;48.488;13.436;2022-08-21T06:48:35;11.50;;;6.67;;
11238;SDS011;5677;48.488;13.436;2022-08-21T06:51:04;10.30;;;9.20;;
11238;SDS011;5677;48.488;13.436;2022-08-21T06:53:33;11.73;;;7.47;;
11238;SDS011;5677;48.488;13.436;2022-08-21T06:56:02;8.93;;;7.40;;
11238;SDS011;5677;48.488;13.436;2022-08-21T06:58:31;11.30;;;8.93;;
11238;SDS011;5677;48.488;13.436;2022-08-21T07:01:02;11.00;;;8.60;;
11238;SDS011;5677;48.488;13.436;2022-08-21T07:03:32;11.50;;;8.43;;
11238;SDS011;5677;48.488;13.436;2022-08-21T07:06:04;12.13;;;9.20;;
11238;SDS011;5677;48.488;13.436;2022-08-21T07:08:35;8.77;;;7.83;;
11238;SDS011;5677;48.488;13.436;2022-08-21T07:11:09;11.70;;;8.60;;
11238;SDS011;5677;48.488;13.436;2022-08-21T07:13:43;10.30;;;8.33;;
11238;SDS011;5677;48.488;13.436;2022-08-21T07:16:14;9.27;;;8.20;;
11238;SDS011;5677;48.488;13.436;2022-08-21T07:18:42;10.20;;;9.00;;
11238;SDS011;5677;48.488;13.436;2022-08-21T07:21:11;10.67;;;9.57;;
11238;SDS011;5677;48.488;13.436;2022-08-21T07:23:41;11.00;;;8.57;;
11238;SDS011;5677;48.488;13.436;2022-08-21T07:26:12;9.23;;;8.10;;
11238;SDS011;5677;48.488;13.436;2022-08-21T07:28:43;8.70;;;7.77;;
11238;SDS011;5677;48.488;13.436;2022-08-21T07:31:12;9.43;;;7.07;;
11238;SDS011;5677;48.488;13.436;2022-08-21T07:33:45;8.07;;;7.23;;
11238;SDS011;5677;48.488;13.436;2022-08-21T07:36:14;10.90;;;8.73;;
11238;SDS011;5677;48.488;13.436;2022-08-21T07:38:44;10.30;;;8.07;;
11238;SDS011;5677;48.488;13.436;2022-08-21T07:41:13;9.57;;;7.77;;
11238;SDS011;5677;48.488;13.436;2022-08-21T07:43:45;8.77;;;7.53;;
11238;SDS011;5677;48.488;13.436;2022-08-21T07:46:15;10.17;;;9.10;;
11238;SDS011;5677;48.488;13.436;2022-08-21T07:48:44;8.43;;;7.53;;
11238;SDS011;5677;48.488;13.436;2022-08-21T07:51:13;10.30;;;7.70;;
11238;SDS011;5677;48.488;13.436;2022-08-21T07:53:47;10.27;;;8.33;;
11238;SDS011;5677;48.488;13.436;2022-08-21T07:56:17;9.83;;;7.77;;
11238;SDS011;5677;48.488;13.436;2022-08-21T07:58:46;11.83;;;9.73;;
11238;SDS011;5677;48.488;13.436;2022-08-21T08:01:17;11.77;;;10.00;;
11238;SDS011;5677;48.488;13.436;2022-08-21T08:03:46;11.50;;;10.30;;
11238;SDS011;5677;48.488;13.436;2022-08-21T08:06:15;9.37;;;8.13;;
11238;SDS011;5677;48.488;13.436;2022-08-21T08:08:44;8.77;;;6.77;;
11238;SDS011;5677;48.488;13.436;2022-08-21T08:11:14;9.90;;;6.43;;
11238;SDS011;5677;48.488;13.436;2022-08-21T08:13:43;7.27;;;6.03;;
11238;SDS011;5677;48.488;13.436;2022-08-21T08:16:18;14.97;;;6.53;;
11238;SDS011;5677;48.488;13.436;2022-08-21T08:18:46;9.77;;;5.83;;
11238;SDS011;5677;48.488;13.436;2022-08-21T08:21:16;7.20;;;5.90;;
11238;SDS011;5677;48.488;13.436;2022-08-21T08:23:46;8.60;;;5.77;;
11238;SDS011;5677;48.488;13.436;2022-08-21T08:26:15;6.50;;;5.20;;
11238;SDS011;5677;48.488;13.436;2022-08-21T08:28:43;8.03;;;5.73;;
11238;SDS011;5677;48.488;13.436;2022-08-21T08:31:13;7.00;;;5.20;;
11238;SDS011;5677;48.488;13.436;2022-08-21T08:33:44;8.63;;;5.77;;
11238;SDS011;5677;48.488;13.436;2022-08-21T08:36:13;8.13;;;5.40;;
11238;SDS011;5677;48.488;13.436;2022-08-21T08:38:42;7.33;;;5.10;;
11238;SDS011;5677;48.488;13.436;2022-08-21T08:41:12;6.37;;;5.30;;
11238;SDS011;5677;48.488;13.436;2022-08-21T08:43:51;6.43;;;5.40;;
11238;SDS011;5677;48.488;13.436;2022-08-21T08:46:30;6.30;;;4.97;;
11238;SDS011;5677;48.488;13.436;2022-08-21T08:49:08;5.90;;;4.83;;
11238;SDS011;5677;48.488;13.436;2022-08-21T08:51:44;6.80;;;5.07;;
11238;SDS011;5677;48.488;13.436;2022-08-21T08:54:20;8.57;;;5.20;;
11238;SDS011;5677;48.488;13.436;2022-08-21T08:56:57;6.63;;;5.00;;
11238;SDS011;5677;48.488;13.436;2022-08-21T08:59:29;6.83;;;4.97;;
11238;SDS011;5677;48.488;13.436;2022-08-21T09:02:06;7.63;;;4.83;;
11238;SDS011;5677;48.488;13.436;2022-08-21T09:04:41;6.23;;;5.27;;
11238;SDS011;5677;48.488;13.436;2022-08-21T09:07:15;6.40;;;5.10;;
11238;SDS011;5677;48.488;13.436;2022-08-21T09:09:58;5.10;;;4.60;;
11238;SDS011;5677;48.488;13.436;2022-08-21T09:12:39;5.27;;;4.77;;
11238;SDS011;5677;48.488;13.436;2022-08-21T09:15:25;5.30;;;4.70;;
11238;SDS011;5677;48.488;13.436;2022-08-21T09:18:12;4.93;;;4.53;;
11238;SDS011;5677;48.488;13.436;2022-08-21T09:21:09;6.27;;;4.87;;
11238;SDS011;5677;48.488;13.436;2022-08-21T09:23:52;6.03;;;4.77;;
11238;SDS011;5677;48.488;13.436;2022-08-21T09:26:30;5.27;;;4.77;;
11238;SDS011;5677;48.488;13.436;2022-08-21T09:29:10;6.03;;;5.07;;
11238;SDS011;5677;48.488;13.436;2022-08-21T09:31:39;5.60;;;4.77;;
11238;SDS011;5677;48.488;13.436;2022-08-21T09:34:09;6.53;;;4.83;;
11238;SDS011;5677;48.488;13.436;2022-08-21T09:36:42;4.60;;;4.20;;
11238;SDS011;5677;48.488;13.436;2022-08-21T09:39:22;5.03;;;4.60;;
11238;SDS011;5677;48.488;13.436;2022-08-21T09:41:55;6.43;;;4.53;;
11238;SDS011;5677;48.488;13.436;2022-08-21T09:44:27;5.27;;;4.60;;
11238;SDS011;5677;48.488;13.436;2022-08-21T09:47:01;7.63;;;4.70;;
11238;SDS011;5677;48.488;13.436;2022-08-21T09:49:33;5.67;;;5.10;;
11238;SDS011;5677;48.488;13.436;2022-08-21T09:52:16;5.90;;;5.23;;
11238;SDS011;5677;48.488;13.436;2022-08-21T09:54:49;6.67;;;5.77;;
11238;SDS011;5677;48.488;13.436;2022-08-21T09:57:23;9.67;;;6.07;;
11238;SDS011;5677;48.488;13.436;2022-08-21T10:00:08;7.50;;;5.50;;
11238;SDS011;5677;48.488;13.436;2022-08-21T10:02:45;9.23;;;5.80;;
11238;SDS011;5677;48.488;13.436;2022-08-21T10:05:16;8.97;;;5.67;;
11238;SDS011;5677;48.488;13.436;2022-08-21T10:07:55;8.30;;;5.73;;
11238;SDS011;5677;48.488;13.436;2022-08-21T10:10:24;6.57;;;5.90;;
11238;SDS011;5677;48.488;13.436;2022-08-21T10:12:58;7.07;;;5.70;;
11238;SDS011;5677;48.488;13.436;2022-08-21T10:15:42;7.17;;;6.27;;
11238;SDS011;5677;48.488;13.436;2022-08-21T10:18:22;7.97;;;6.47;;
11238;SDS011;5677;48.488;13.436;2022-08-21T10:20:59;10.87;;;6.60;;
11238;SDS011;5677;48.488;13.436;2022-08-21T10:23:46;10.53;;;6.83;;
11238;SDS011;5677;48.488;13.436;2022-08-21T10:26:31;12.00;;;6.83;;
11238;SDS011;5677;48.488;13.436;2022-08-21T10:29:17;8.60;;;7.80;;
11238;SDS011;5677;48.488;13.436;2022-08-21T10:32:12;9.93;;;7.00;;
11238;SDS011;5677;48.488;13.436;2022-08-21T10:35:15;8.00;;;6.73;;
11238;SDS011;5677;48.488;13.436;2022-08-21T10:41:12;8.30;;;7.50;;
11238;SDS011;5677;48.488;13.436;2022-08-21T10:43:57;7.20;;;6.50;;
11238;SDS011;5677;48.488;13.436;2022-08-21T10:46:41;8.07;;;7.23;;
11238;SDS011;5677;48.488;13.436;2022-08-21T10:49:22;12.37;;;7.57;;
11238;SDS011;5677;48.488;13.436;2022-08-21T10:52:09;8.43;;;7.03;;
11238;SDS011;5677;48.488;13.436;2022-08-21T10:55:08;9.00;;;7.40;;
11238;SDS011;5677;48.488;13.436;2022-08-21T10:57:44;8.70;;;7.80;;
11238;SDS011;5677;48.488;13.436;2022-08-21T11:00:22;7.33;;;6.57;;
11238;SDS011;5677;48.488;13.436;2022-08-21T11:02:57;8.27;;;7.47;;
11238;SDS011;5677;48.488;13.436;2022-08-21T11:05:38;9.13;;;6.83;;
11238;SDS011;5677;48.488;13.436;2022-08-21T11:08:15;8.13;;;7.23;;
11238;SDS011;5677;48.488;13.436;2022-08-21T11:10:50;7.40;;;6.70;;
11238;SDS011;5677;48.488;13.436;2022-08-21T11:13:30;8.83;;;7.27;;
11238;SDS011;5677;48.488;13.436;2022-08-21T11:16:14;9.60;;;6.97;;
11238;SDS011;5677;48.488;13.436;2022-08-21T11:18:52;8.53;;;7.13;;
11238;SDS011;5677;48.488;13.436;2022-08-21T11:21:30;7.37;;;6.67;;
11238;SDS011;5677;48.488;13.436;2022-08-21T11:24:15;8.73;;;6.77;;
11238;SDS011;5677;48.488;13.436;2022-08-21T11:26:58;7.43;;;6.47;;
11238;SDS011;5677;48.488;13.436;2022-08-21T11:29:38;11.97;;;7.30;;
11238;SDS011;5677;48.488;13.436;2022-08-21T11:32:19;6.83;;;6.13;;
11238;SDS011;5677;48.488;13.436;2022-08-21T11:35:31;7.20;;;5.97;;
11238;SDS011;5677;48.488;13.436;2022-08-21T11:38:15;11.33;;;6.80;;
11238;SDS011;5677;48.488;13.436;2022-08-21T11:41:03;7.57;;;6.37;;
11238;SDS011;5677;48.488;13.436;2022-08-21T11:43:56;9.60;;;6.63;;
11238;SDS011;5677;48.488;13.436;2022-08-21T11:46:44;7.03;;;6.40;;
11238;SDS011;5677;48.488;13.436;2022-08-21T11:49:30;7.43;;;6.50;;
11238;SDS011;5677;48.488;13.436;2022-08-21T11:52:18;10.57;;;6.30;;
11238;SDS011;5677;48.488;13.436;2022-08-21T11:54:56;7.13;;;6.53;;
11238;SDS011;5677;48.488;13.436;2022-08-21T11:57:35;7.83;;;6.40;;
11238;SDS011;5677;48.488;13.436;2022-08-21T12:00:16;7.33;;;6.00;;
11238;SDS011;5677;48.488;13.436;2022-08-21T12:02:53;6.70;;;5.97;;
11238;SDS011;5677;48.488;13.436;2022-08-21T12:05:27;7.87;;;6.27;;
11238;SDS011;5677;48.488;13.436;2022-08-21T12:08:03;8.37;;;6.57;;
11238;SDS011;5677;48.488;13.436;2022-08-21T12:10:35;10.03;;;6.37;;
11238;SDS011;5677;48.488;13.436;2022-08-21T12:13:09;6.80;;;6.00;;
11238;SDS011;5677;48.488;13.436;2022-08-21T12:15:49;6.10;;;5.50;;
11238;SDS011;5677;48.488;13.436;2022-08-21T12:18:23;6.30;;;5.70;;
11238;SDS011;5677;48.488;13.436;2022-08-21T12:20:59;5.93;;;5.43;;
11238;SDS011;5677;48.488;13.436;2022-08-21T12:23:44;7.27;;;5.77;;
11238;SDS011;5677;48.488;13.436;2022-08-21T12:26:21;6.20;;;5.53;;
11238;SDS011;5677;48.488;13.436;2022-08-21T12:29:05;8.43;;;5.40;;
11238;SDS011;5677;48.488;13.436;2022-08-21T12:31:47;8.80;;;5.53;;
11238;SDS011;5677;48.488;13.436;2022-08-21T12:34:29;9.50;;;5.30;;
11238;SDS011;5677;48.488;13.436;2022-08-21T12:37:03;10.90;;;6.20;;
11238;SDS011;5677;48.488;13.436;2022-08-21T12:39:42;6.87;;;6.13;;
11238;SDS011;5677;48.488;13.436;2022-08-21T12:42:16;7.50;;;5.70;;
11238;SDS011;5677;48.488;13.436;2022-08-21T12:44:50;5.10;;;4.70;;
11238;SDS011;5677;48.488;13.436;2022-08-21T12:47:25;5.10;;;4.60;;
11238;SDS011;5677;48.488;13.436;2022-08-21T12:50:03;5.63;;;4.77;;
11238;SDS011;5677;48.488;13.436;2022-08-21T12:52:39;5.23;;;4.27;;
11238;SDS011;5677;48.488;13.436;2022-08-21T12:55:15;7.33;;;4.07;;
11238;SDS011;5677;48.488;13.436;2022-08-21T12:57:55;7.57;;;4.10;;
11238;SDS011;5677;48.488;13.436;2022-08-21T13:00:24;4.87;;;4.00;;
11238;SDS011;5677;48.488;13.436;2022-08-21T13:02:56;5.50;;;3.70;;
11238;SDS011;5677;48.488;13.436;2022-08-21T13:05:30;6.27;;;4.13;;
11238;SDS011;5677;48.488;13.436;2022-08-21T13:08:03;5.10;;;3.80;;
11238;SDS011;5677;48.488;13.436;2022-08-21T13:10:34;4.10;;;3.50;;
11238;SDS011;5677;48.488;13.436;2022-08-21T13:13:07;4.77;;;3.60;;
11238;SDS011;5677;48.488;13.436;2022-08-21T13:15:44;4.30;;;3.90;;
11238;SDS011;5677;48.488;13.436;2022-08-21T13:18:19;3.77;;;3.47;;
11238;SDS011;5677;48.488;13.436;2022-08-21T13:21:01;5.10;;;4.10;;
11238;SDS011;5677;48.488;13.436;2022-08-21T13:23:34;6.83;;;3.80;;
11238;SDS011;5677;48.488;13.436;2022-08-21T13:26:11;4.63;;;3.70;;
11238;SDS011;5677;48.488;13.436;2022-08-21T13:28:41;5.10;;;4.13;;
11238;SDS011;5677;48.488;13.436;2022-08-21T13:31:15;4.17;;;3.80;;
11238;SDS011;5677;48.488;13.436;2022-08-21T13:33:48;4.03;;;3.60;;
11238;SDS011;5677;48.488;13.436;2022-08-21T13:36:21;5.13;;;3.80;;
11238;SDS011;5677;48.488;13.436;2022-08-21T13:38:55;4.60;;;4.20;;
11238;SDS011;5677;48.488;13.436;2022-08-21T13:41:26;4.70;;;4.20;;
11238;SDS011;5677;48.488;13.436;2022-08-21T13:43:59;4.23;;;3.83;;
11238;SDS011;5677;48.488;13.436;2022-08-21T13:46:33;4.63;;;3.90;;
11238;SDS011;5677;48.488;13.436;2022-08-21T13:49:03;4.87;;;3.80;;
11238;SDS011;5677;48.488;13.436;2022-08-21T13:51:36;4.37;;;3.97;;
11238;SDS011;5677;48.488;13.436;2022-08-21T13:54:13;5.07;;;3.70;;
11238;SDS011;5677;48.488;13.436;2022-08-21T13:56:52;4.20;;;3.80;;
11238;SDS011;5677;48.488;13.436;2022-08-21T13:59:26;5.03;;;4.07;;
11238;SDS011;5677;48.488;13.436;2022-08-21T14:01:57;4.47;;;3.77;;
11238;SDS011;5677;48.488;13.436;2022-08-21T14:04:36;4.80;;;4.30;;
11238;SDS011;5677;48.488;13.436;2022-08-21T14:07:16;4.53;;;4.00;;
11238;SDS011;5677;48.488;13.436;2022-08-21T14:09:51;4.83;;;4.23;;
11238;SDS011;5677;48.488;13.436;2022-08-21T14:12:24;5.27;;;4.50;;
11238;SDS011;5677;48.488;13.436;2022-08-21T14:15:05;4.93;;;4.43;;
11238;SDS011;5677;48.488;13.436;2022-08-21T14:17:41;5.87;;;4.57;;
11238;SDS011;5677;48.488;13.436;2022-08-21T14:20:11;4.80;;;4.40;;
11238;SDS011;5677;48.488;13.436;2022-08-21T14:22:57;4.90;;;4.33;;
11238;SDS011;5677;48.488;13.436;2022-08-21T14:25:28;5.30;;;4.80;;
11238;SDS011;5677;48.488;13.436;2022-08-21T14:28:08;6.07;;;5.57;;
11238;SDS011;5677;48.488;13.436;2022-08-21T14:30:47;5.80;;;5.30;;
11238;SDS011;5677;48.488;13.436;2022-08-21T14:33:18;5.57;;;5.07;;
11238;SDS011;5677;48.488;13.436;2022-08-21T14:35:53;8.00;;;5.00;;
11238;SDS011;5677;48.488;13.436;2022-08-21T14:38:25;5.90;;;4.83;;
11238;SDS011;5677;48.488;13.436;2022-08-21T14:40:55;6.13;;;4.87;;
11238;SDS011;5677;48.488;13.436;2022-08-21T14:43:30;7.20;;;4.93;;
11238;SDS011;5677;48.488;13.436;2022-08-21T14:46:00;6.93;;;4.90;;
11238;SDS011;5677;48.488;13.436;2022-08-21T14:48:28;4.90;;;4.50;;
11238;SDS011;5677;48.488;13.436;2022-08-21T14:50:57;5.27;;;4.77;;
11238;SDS011;5677;48.488;13.436;2022-08-21T14:53:27;5.40;;;4.90;;
11238;SDS011;5677;48.488;13.436;2022-08-21T14:55:57;5.50;;;5.00;;
11238;SDS011;5677;48.488;13.436;2022-08-21T14:58:32;5.53;;;4.83;;
11238;SDS011;5677;48.488;13.436;2022-08-21T15:01:04;5.33;;;4.60;;
11238;SDS011;5677;48.488;13.436;2022-08-21T15:03:35;5.33;;;4.83;;
11238;SDS011;5677;48.488;13.436;2022-08-21T15:06:05;5.17;;;4.53;;
11238;SDS011;5677;48.488;13.436;2022-08-21T15:08:37;4.87;;;4.37;;
11238;SDS011;5677;48.488;13.436;2022-08-21T15:11:06;5.13;;;4.73;;
11238;SDS011;5677;48.488;13.436;2022-08-21T15:13:38;5.43;;;4.93;;
11238;SDS011;5677;48.488;13.436;2022-08-21T15:16:08;4.80;;;4.40;;
11238;SDS011;5677;48.488;13.436;2022-08-21T15:18:39;4.73;;;4.33;;
11238;SDS011;5677;48.488;13.436;2022-08-21T15:21:09;4.73;;;4.33;;
11238;SDS011;5677;48.488;13.436;2022-08-21T15:23:40;6.00;;;5.00;;